createdAt,value
2018-05-04T00:01:28.496Z,3.87
2018-05-04T00:03:56.025Z,3.67
2018-05-04T00:06:23.571Z,3.27
2018-05-04T00:08:51.095Z,4.23
2018-05-04T00:11:18.596Z,5.17
2018-05-04T00:13:46.120Z,3.43
2018-05-04T00:16:13.638Z,3.40
2018-05-04T00:18:41.963Z,4.57
2018-05-04T00:21:09.526Z,4.33
2018-05-04T00:23:37.064Z,6.43
2018-05-04T00:26:04.582Z,4.37
2018-05-04T00:28:32.113Z,4.27
2018-05-04T00:30:59.633Z,4.37
2018-05-04T00:33:27.163Z,4.33
2018-05-04T00:35:54.688Z,3.57
2018-05-04T00:38:22.231Z,5.07
2018-05-04T00:40:49.739Z,4.93
2018-05-04T00:43:17.314Z,6.23
2018-05-04T00:45:44.843Z,3.63
2018-05-04T00:48:12.384Z,2.90
2018-05-04T00:50:39.923Z,3.63
2018-05-04T00:53:07.444Z,4.63
2018-05-04T00:55:34.993Z,4.67
2018-05-04T00:58:02.516Z,3.97
2018-05-04T01:00:30.040Z,2.90
2018-05-04T01:02:57.582Z,4.27
2018-05-04T01:05:25.123Z,4.03
2018-05-04T01:07:52.649Z,7.83
2018-05-04T01:10:20.943Z,3.83
2018-05-04T01:12:48.466Z,3.67
2018-05-04T01:15:16.011Z,4.00
2018-05-04T01:20:17.120Z,4.87
2018-05-04T01:22:44.633Z,4.43
2018-05-04T01:25:12.168Z,3.73
2018-05-04T01:27:39.699Z,4.77
2018-05-04T01:30:07.232Z,4.53
2018-05-04T01:32:34.749Z,4.20
2018-05-04T01:35:02.325Z,5.70
2018-05-04T01:37:29.816Z,5.07
2018-05-04T01:39:57.377Z,3.43
2018-05-04T01:42:24.907Z,4.93
2018-05-04T01:44:52.450Z,4.73
2018-05-04T01:47:19.960Z,5.20
2018-05-04T01:49:47.500Z,4.10
2018-05-04T01:52:15.022Z,4.17
2018-05-04T01:54:42.566Z,4.57
2018-05-04T01:57:10.093Z,5.80
2018-05-04T01:59:37.650Z,4.03
2018-05-04T02:02:05.175Z,3.77
2018-05-04T02:04:32.696Z,7.07
2018-05-04T02:07:00.240Z,4.50
2018-05-04T02:09:27.758Z,5.13
2018-05-04T02:11:56.065Z,5.13
2018-05-04T02:14:23.594Z,5.33
2018-05-04T02:16:51.136Z,4.00
2018-05-04T02:19:18.675Z,5.30
2018-05-04T02:21:46.201Z,4.57
2018-05-04T02:24:13.731Z,4.30
2018-05-04T02:26:41.266Z,4.43
2018-05-04T02:29:08.800Z,6.57
2018-05-04T02:31:36.351Z,5.43
2018-05-04T02:34:03.877Z,5.70
2018-05-04T02:36:31.440Z,5.10
2018-05-04T02:38:58.972Z,7.27
2018-05-04T02:41:26.576Z,6.70
2018-05-04T02:43:54.806Z,4.87
2018-05-04T02:46:22.355Z,4.40
2018-05-04T02:48:50.648Z,5.13
2018-05-04T02:51:18.198Z,7.67
2018-05-04T02:53:45.721Z,4.63
2018-05-04T02:56:13.259Z,7.43
2018-05-04T02:58:40.788Z,4.97
2018-05-04T03:01:08.361Z,6.93
2018-05-04T03:03:35.887Z,5.33
2018-05-04T03:06:03.437Z,6.10
2018-05-04T03:08:31.728Z,4.17
2018-05-04T03:10:59.257Z,5.47
2018-05-04T03:13:27.545Z,4.50
2018-05-04T03:15:55.095Z,5.60
2018-05-04T03:18:22.624Z,6.90
2018-05-04T03:20:50.146Z,6.33
2018-05-04T03:23:17.681Z,9.47
2018-05-04T03:25:45.196Z,5.03
2018-05-04T03:28:12.732Z,6.77
2018-05-04T03:30:41.053Z,7.63
2018-05-04T03:33:09.364Z,7.27
2018-05-04T03:35:36.879Z,7.80
2018-05-04T03:38:05.237Z,11.30
2018-05-04T03:40:32.761Z,9.47
2018-05-04T03:43:00.296Z,7.93
2018-05-04T03:45:27.816Z,6.17
2018-05-04T03:47:55.360Z,9.80
2018-05-04T03:50:22.885Z,8.10
2018-05-04T03:52:50.433Z,6.40
2018-05-04T03:55:17.954Z,6.83
2018-05-04T03:57:57.414Z,5.53
2018-05-04T04:00:36.764Z,6.00
2018-05-04T04:03:16.217Z,9.20
2018-05-04T04:05:43.758Z,7.73
2018-05-04T04:08:12.052Z,7.93
2018-05-04T04:10:39.580Z,8.17
2018-05-04T04:13:07.119Z,7.07
2018-05-04T04:15:34.707Z,5.93
2018-05-04T04:18:02.293Z,5.17
2018-05-04T04:20:29.788Z,10.67
2018-05-04T04:22:58.087Z,7.63
2018-05-04T04:25:25.648Z,8.33
2018-05-04T04:27:53.173Z,6.83
2018-05-04T04:30:20.717Z,6.03
2018-05-04T04:32:48.247Z,6.37
2018-05-04T04:35:15.795Z,9.17
2018-05-04T04:37:43.312Z,6.53
2018-05-04T04:40:10.840Z,8.33
2018-05-04T04:42:38.384Z,6.47
2018-05-04T04:45:06.775Z,6.43
2018-05-04T04:47:34.256Z,6.50
2018-05-04T04:50:02.574Z,8.13
2018-05-04T04:52:30.101Z,9.07
2018-05-04T04:54:57.644Z,7.30
2018-05-04T04:57:25.169Z,9.07
2018-05-04T04:59:52.705Z,9.77
2018-05-04T05:02:20.996Z,7.90
2018-05-04T05:04:48.533Z,7.30
2018-05-04T05:07:16.052Z,6.17
2018-05-04T05:09:44.362Z,11.57
2018-05-04T05:12:11.881Z,5.87
2018-05-04T05:14:40.173Z,6.77
2018-05-04T05:17:07.688Z,5.83
2018-05-04T05:19:35.216Z,6.13
2018-05-04T05:22:02.745Z,7.00
2018-05-04T05:24:30.293Z,10.17
2018-05-04T05:26:57.817Z,9.00
2018-05-04T05:29:25.422Z,6.43
2018-05-04T05:31:52.919Z,9.80
2018-05-04T05:34:20.475Z,6.17
2018-05-04T05:36:48.001Z,7.93
2018-05-04T05:39:15.522Z,8.27
2018-05-04T05:41:43.070Z,7.47
2018-05-04T05:44:10.657Z,6.57
2018-05-04T05:46:38.965Z,11.77
2018-05-04T05:49:06.668Z,8.00
2018-05-04T05:51:34.228Z,11.60
2018-05-04T05:54:01.771Z,7.80
2018-05-04T05:56:29.308Z,6.37
2018-05-04T05:58:56.840Z,6.93
2018-05-04T06:01:24.417Z,6.57
2018-05-04T06:03:51.936Z,8.63
2018-05-04T06:06:20.249Z,9.00
2018-05-04T06:08:47.760Z,8.90
2018-05-04T06:11:15.311Z,9.57
2018-05-04T06:13:42.866Z,8.50
2018-05-04T06:16:10.409Z,9.83
2018-05-04T06:18:37.921Z,6.37
2018-05-04T06:21:05.592Z,8.87
2018-05-04T06:23:33.117Z,8.03
2018-05-04T06:26:00.660Z,8.03
2018-05-04T06:28:28.195Z,8.73
2018-05-04T06:30:55.724Z,7.67
2018-05-04T06:33:23.264Z,8.27
2018-05-04T06:35:50.805Z,9.07
2018-05-04T06:38:18.340Z,8.00
2018-05-04T06:40:45.886Z,12.17
2018-05-04T06:43:13.494Z,8.77
2018-05-04T06:45:41.076Z,7.63
2018-05-04T06:48:08.599Z,9.90
2018-05-04T06:50:36.161Z,8.90
2018-05-04T06:53:03.708Z,9.77
2018-05-04T06:55:31.997Z,9.97
2018-05-04T06:57:59.537Z,12.00
2018-05-04T07:00:27.868Z,13.17
2018-05-04T07:02:55.411Z,6.33
2018-05-04T07:05:22.958Z,6.00
2018-05-04T07:07:50.497Z,14.37
2018-05-04T07:10:18.097Z,7.27
2018-05-04T07:12:45.643Z,9.53
2018-05-04T07:15:13.169Z,6.63
2018-05-04T07:17:40.704Z,9.40
2018-05-04T07:20:08.230Z,5.27
2018-05-04T07:22:35.772Z,10.23
2018-05-04T07:25:03.314Z,6.17
2018-05-04T07:27:30.886Z,7.23
2018-05-04T07:29:58.435Z,9.07
2018-05-04T07:32:25.977Z,6.23
2018-05-04T07:34:53.504Z,5.47
2018-05-04T07:37:21.057Z,4.07
2018-05-04T07:39:48.589Z,5.57
2018-05-04T07:42:16.131Z,4.50
2018-05-04T07:44:43.691Z,8.47
2018-05-04T07:47:11.261Z,4.30
2018-05-04T07:49:39.483Z,6.83
2018-05-04T07:52:07.038Z,6.67
2018-05-04T07:54:35.337Z,6.20
2018-05-04T07:57:02.910Z,4.93
2018-05-04T07:59:30.445Z,5.10
2018-05-04T08:01:57.980Z,5.50
2018-05-04T08:04:25.551Z,3.57
2018-05-04T08:06:53.064Z,3.57
2018-05-04T08:09:20.620Z,8.80
2018-05-04T08:11:48.233Z,5.97
2018-05-04T08:14:15.733Z,4.93
2018-05-04T08:16:43.270Z,5.67
2018-05-04T08:19:10.811Z,4.13
2018-05-04T08:21:38.337Z,5.93
2018-05-04T08:24:05.876Z,4.77
2018-05-04T08:26:33.410Z,5.43
2018-05-04T08:29:00.968Z,5.60
2018-05-04T08:31:28.514Z,4.70
2018-05-04T08:33:56.066Z,4.80
2018-05-04T08:36:23.606Z,5.37
2018-05-04T08:38:51.925Z,4.17
2018-05-04T08:41:19.449Z,3.50
2018-05-04T08:43:47.019Z,5.80
2018-05-04T08:46:14.551Z,2.97
2018-05-04T08:48:42.100Z,3.17
2018-05-04T08:51:10.467Z,5.93
2018-05-04T08:53:38.019Z,5.73
2018-05-04T08:56:05.548Z,4.53
2018-05-04T08:58:33.101Z,6.57
2018-05-04T09:01:00.665Z,3.10
2018-05-04T09:03:28.205Z,3.53
2018-05-04T09:05:55.723Z,8.10
2018-05-04T09:08:24.045Z,4.03
2018-05-04T09:10:51.625Z,5.87
2018-05-04T09:13:19.183Z,4.13
2018-05-04T09:15:46.733Z,3.83
2018-05-04T09:18:14.267Z,3.90
2018-05-04T09:20:41.841Z,3.77
2018-05-04T09:23:09.368Z,10.07
2018-05-04T09:25:36.913Z,4.47
2018-05-04T09:28:05.341Z,4.97
2018-05-04T09:30:32.882Z,4.23
2018-05-04T09:33:00.404Z,3.97
2018-05-04T09:35:27.945Z,1.77
2018-05-04T09:37:55.468Z,5.00
2018-05-04T09:40:23.010Z,4.60
2018-05-04T09:42:50.538Z,8.37
2018-05-04T09:45:18.840Z,4.10
2018-05-04T09:47:46.369Z,2.70
2018-05-04T09:50:13.916Z,3.93
2018-05-04T09:52:41.473Z,3.13
2018-05-04T09:55:09.820Z,2.50
2018-05-04T09:57:37.343Z,3.90
2018-05-04T10:00:04.952Z,3.53
2018-05-04T10:02:32.493Z,5.10
2018-05-04T10:05:00.033Z,4.50
2018-05-04T10:07:27.613Z,5.90
2018-05-04T10:09:55.148Z,4.50
2018-05-04T10:12:22.670Z,3.70
2018-05-04T10:14:50.232Z,5.17
2018-05-04T10:17:17.775Z,3.37
2018-05-04T10:19:45.332Z,5.13
2018-05-04T10:22:13.621Z,3.80
2018-05-04T10:24:41.181Z,2.90
2018-05-04T10:27:09.470Z,3.57
2018-05-04T10:29:37.003Z,4.80
2018-05-04T10:32:05.315Z,3.37
2018-05-04T10:34:32.852Z,5.40
2018-05-04T10:37:00.414Z,2.73
2018-05-04T10:39:28.715Z,4.43
2018-05-04T10:41:56.273Z,3.73
2018-05-04T10:44:23.802Z,4.67
2018-05-04T10:46:51.358Z,2.83
2018-05-04T10:49:18.887Z,5.63
2018-05-04T10:51:46.428Z,6.37
2018-05-04T10:54:13.950Z,3.40
2018-05-04T10:56:41.493Z,3.97
2018-05-04T10:59:09.025Z,4.23
2018-05-04T11:01:36.573Z,7.83
2018-05-04T11:04:04.104Z,4.07
2018-05-04T11:06:31.648Z,8.53
2018-05-04T11:08:59.170Z,4.80
2018-05-04T11:11:26.713Z,4.37
2018-05-04T11:13:54.236Z,3.57
2018-05-04T11:16:21.774Z,2.53
2018-05-04T11:18:50.071Z,4.07
2018-05-04T11:21:17.621Z,3.93
2018-05-04T11:23:45.137Z,4.00
2018-05-04T11:26:12.674Z,7.37
2018-05-04T11:28:40.205Z,4.57
2018-05-04T11:31:07.742Z,4.10
2018-05-04T11:33:35.260Z,7.97
2018-05-04T11:36:03.620Z,5.27
2018-05-04T11:38:31.183Z,3.93
2018-05-04T11:40:58.745Z,6.33
2018-05-04T11:43:27.062Z,2.03
2018-05-04T11:45:54.591Z,3.03
2018-05-04T11:48:22.889Z,2.67
2018-05-04T11:50:50.419Z,4.03
2018-05-04T11:53:19.295Z,3.07
2018-05-04T11:55:47.629Z,3.30
2018-05-04T11:58:15.169Z,3.80
2018-05-04T12:00:42.681Z,3.57
2018-05-04T12:03:10.213Z,6.13
2018-05-04T12:05:37.780Z,3.73
2018-05-04T12:08:05.419Z,2.83
2018-05-04T12:10:32.968Z,2.57
2018-05-04T12:13:00.509Z,3.00
2018-05-04T12:15:29.008Z,2.70
2018-05-04T12:17:56.544Z,2.27
2018-05-04T12:20:24.153Z,4.37
2018-05-04T12:22:51.780Z,2.43
2018-05-04T12:25:19.241Z,3.20
2018-05-04T12:27:46.783Z,5.07
2018-05-04T12:30:14.309Z,5.80
2018-05-04T12:32:42.621Z,4.60
2018-05-04T12:35:10.147Z,1.80
2018-05-04T12:37:38.449Z,3.10
2018-05-04T12:40:05.964Z,3.33
2018-05-04T12:42:33.514Z,4.63
2018-05-04T12:45:01.044Z,3.23
2018-05-04T12:47:28.623Z,4.57
2018-05-04T12:49:56.150Z,3.80
2018-05-04T12:52:23.728Z,4.73
2018-05-04T12:54:51.266Z,3.70
2018-05-04T12:57:18.797Z,4.43
2018-05-04T12:59:47.106Z,3.20
2018-05-04T13:02:14.645Z,3.63
2018-05-04T13:04:42.196Z,6.50
2018-05-04T13:07:09.748Z,5.57
2018-05-04T13:09:37.291Z,4.93
2018-05-04T13:12:05.586Z,3.07
2018-05-04T13:14:33.133Z,3.90
2018-05-04T13:17:01.436Z,3.20
2018-05-04T13:19:28.989Z,2.67
2018-05-04T13:21:56.537Z,3.07
2018-05-04T13:24:24.089Z,2.50
2018-05-04T13:26:52.385Z,2.63
2018-05-04T13:29:19.925Z,2.90
2018-05-04T13:31:47.448Z,3.77
2018-05-04T13:34:14.985Z,1.60
2018-05-04T13:36:42.511Z,3.53
2018-05-04T13:39:10.051Z,2.40
2018-05-04T13:41:37.588Z,2.13
2018-05-04T13:44:05.172Z,3.87
2018-05-04T13:46:32.706Z,4.20
2018-05-04T13:49:01.013Z,3.63
2018-05-04T13:51:29.498Z,4.07
2018-05-04T13:53:57.016Z,2.30
2018-05-04T13:56:24.536Z,3.43
2018-05-04T13:58:52.081Z,1.63
2018-05-04T14:01:19.613Z,3.57
2018-05-04T14:03:47.180Z,3.47
2018-05-04T14:06:14.706Z,3.10
2018-05-04T14:08:42.246Z,3.33
2018-05-04T14:11:09.783Z,2.87
2018-05-04T14:13:37.304Z,3.30
2018-05-04T14:16:04.837Z,4.07
2018-05-04T14:18:32.364Z,4.63
2018-05-04T14:20:59.902Z,2.97
2018-05-04T14:23:27.419Z,2.53
2018-05-04T14:25:55.732Z,2.77
2018-05-04T14:28:23.252Z,3.03
2018-05-04T14:30:51.575Z,5.23
2018-05-04T14:33:19.149Z,3.40
2018-05-04T14:35:46.681Z,2.20
2018-05-04T14:38:14.302Z,3.53
2018-05-04T14:40:42.604Z,3.57
2018-05-04T14:43:10.195Z,3.23
2018-05-04T14:45:37.689Z,4.57
2018-05-04T14:48:05.376Z,2.63
2018-05-04T14:50:32.920Z,3.30
2018-05-04T14:53:00.448Z,2.43
2018-05-04T14:55:27.981Z,2.73
2018-05-04T14:57:55.517Z,2.60
2018-05-04T15:00:23.066Z,3.67
2018-05-04T15:02:50.589Z,1.30
2018-05-04T15:05:18.120Z,3.53
2018-05-04T15:07:45.655Z,5.03
2018-05-04T15:10:13.189Z,4.50
2018-05-04T15:12:40.713Z,4.20
2018-05-04T15:15:08.264Z,3.33
2018-05-04T15:17:35.813Z,3.07
2018-05-04T15:20:03.362Z,6.33
2018-05-04T15:22:30.924Z,3.87
2018-05-04T15:24:58.507Z,3.30
2018-05-04T15:27:26.015Z,3.97
2018-05-04T15:29:53.542Z,2.83
2018-05-04T15:32:21.086Z,3.03
2018-05-04T15:34:48.612Z,3.60
2018-05-04T15:37:16.150Z,2.23
2018-05-04T15:39:43.687Z,2.73
2018-05-04T15:42:12.010Z,3.63
2018-05-04T15:44:39.538Z,2.83
2018-05-04T15:47:07.076Z,4.57
2018-05-04T15:49:34.604Z,1.67
2018-05-04T15:52:06.716Z,2.83
2018-05-04T15:54:34.278Z,1.67
2018-05-04T15:57:01.796Z,1.63
2018-05-04T15:59:30.084Z,4.33
2018-05-04T16:01:58.393Z,3.20
2018-05-04T16:04:25.912Z,3.30
2018-05-04T16:06:53.461Z,3.43
2018-05-04T16:09:21.828Z,2.90
2018-05-04T16:11:49.364Z,4.13
2018-05-04T16:14:16.880Z,4.10
2018-05-04T16:16:44.428Z,1.93
2018-05-04T16:19:11.961Z,3.90
2018-05-04T16:21:40.271Z,2.50
2018-05-04T16:24:07.805Z,1.47
2018-05-04T16:26:36.121Z,3.10
2018-05-04T16:29:03.649Z,4.03
2018-05-04T16:31:31.985Z,1.90
2018-05-04T16:34:00.441Z,2.93
2018-05-04T16:36:27.975Z,3.10
2018-05-04T16:38:55.517Z,2.03
2018-05-04T16:41:23.807Z,3.23
2018-05-04T16:43:51.344Z,3.00
2018-05-04T16:46:25.231Z,4.17
2018-05-04T16:48:58.487Z,5.97
2018-05-04T16:51:26.017Z,2.40
2018-05-04T16:53:53.564Z,2.40
2018-05-04T16:56:21.866Z,4.30
2018-05-04T16:58:49.416Z,4.67
2018-05-04T17:01:16.959Z,3.83
2018-05-04T17:03:44.515Z,1.80
2018-05-04T17:06:12.041Z,4.10
2018-05-04T17:08:39.596Z,2.77
2018-05-04T17:11:07.129Z,3.80
2018-05-04T17:13:34.685Z,2.17
2018-05-04T17:16:02.228Z,2.23
2018-05-04T17:18:29.770Z,3.90
2018-05-04T17:20:57.312Z,5.03
2018-05-04T17:23:24.876Z,3.53
2018-05-04T17:25:53.177Z,2.37
2018-05-04T17:28:20.724Z,39.23
2018-05-04T17:30:48.244Z,4.63
2018-05-04T17:33:15.814Z,1.93
2018-05-04T17:35:43.344Z,2.83
2018-05-04T17:38:10.890Z,2.90
2018-05-04T17:40:38.416Z,3.87
2018-05-04T17:43:05.957Z,2.07
2018-05-04T17:45:33.485Z,6.93
2018-05-04T17:48:01.026Z,4.03
2018-05-04T17:50:28.555Z,3.83
2018-05-04T17:52:56.088Z,3.83
2018-05-04T17:55:23.631Z,3.00
2018-05-04T17:57:51.153Z,4.63
2018-05-04T18:00:18.693Z,5.00
2018-05-04T18:02:46.207Z,3.10
2018-05-04T18:05:13.770Z,2.77
2018-05-04T18:07:42.060Z,4.00
2018-05-04T18:10:09.675Z,3.50
2018-05-04T18:12:37.144Z,5.77
2018-05-04T18:15:04.676Z,4.03
2018-05-04T18:17:32.280Z,3.43
2018-05-04T18:20:00.523Z,6.00
2018-05-04T18:22:28.049Z,3.80
2018-05-04T18:24:55.590Z,5.70
2018-05-04T18:27:23.140Z,5.53
2018-05-04T18:29:51.448Z,5.83
2018-05-04T18:32:18.972Z,2.50
2018-05-04T18:34:47.284Z,4.13
2018-05-04T18:37:14.821Z,8.70
2018-05-04T18:39:42.364Z,2.40
2018-05-04T18:42:10.652Z,6.77
2018-05-04T18:44:38.204Z,2.67
2018-05-04T18:47:05.737Z,3.30
2018-05-04T18:49:34.046Z,1.93
2018-05-04T18:52:01.573Z,4.63
2018-05-04T18:54:29.895Z,4.73
2018-05-04T18:56:57.441Z,2.80
2018-05-04T18:59:24.964Z,3.93
2018-05-04T19:01:52.520Z,2.67
2018-05-04T19:04:20.052Z,4.53
2018-05-04T19:06:47.605Z,4.57
2018-05-04T19:09:15.157Z,3.97
2018-05-04T19:11:42.697Z,3.60
2018-05-04T19:14:10.226Z,4.20
2018-05-04T19:16:38.529Z,5.27
2018-05-04T19:19:06.052Z,3.77
2018-05-04T19:21:34.352Z,4.80
2018-05-04T19:24:01.894Z,3.50
2018-05-04T19:26:30.204Z,4.53
2018-05-04T19:28:57.732Z,4.67
2018-05-04T19:31:25.264Z,4.47
2018-05-04T19:33:52.780Z,3.03
2018-05-04T19:36:20.322Z,5.43
2018-05-04T19:38:47.852Z,6.30
2018-05-04T19:41:16.157Z,5.07
2018-05-04T19:43:43.671Z,4.10
2018-05-04T19:46:11.200Z,3.80
2018-05-04T19:48:38.727Z,4.67
2018-05-04T19:51:07.113Z,5.87
2018-05-04T19:53:34.649Z,5.70
2018-05-04T19:56:02.233Z,4.47
2018-05-04T19:58:29.766Z,5.13
2018-05-04T20:00:57.309Z,5.50
2018-05-04T20:03:25.615Z,4.33
2018-05-04T20:05:53.151Z,5.57
2018-05-04T20:08:21.433Z,5.27
2018-05-04T20:10:48.968Z,5.83
2018-05-04T20:13:16.522Z,6.67
2018-05-04T20:15:44.861Z,5.77
2018-05-04T20:18:12.435Z,4.00
2018-05-04T20:20:39.987Z,4.60
2018-05-04T20:23:07.529Z,5.20
2018-05-04T20:25:35.068Z,4.13
2018-05-04T20:28:02.621Z,5.03
2018-05-04T20:30:30.147Z,9.03
2018-05-04T20:32:58.457Z,5.87
2018-05-04T20:35:26.853Z,6.77
2018-05-04T20:37:54.398Z,4.97
2018-05-04T20:40:21.924Z,6.93
2018-05-04T20:42:50.239Z,7.20
2018-05-04T20:45:18.635Z,6.40
2018-05-04T20:47:46.198Z,6.57
2018-05-04T20:50:13.740Z,7.87
2018-05-04T20:52:41.364Z,8.47
2018-05-04T20:55:08.914Z,9.17
2018-05-04T20:57:36.492Z,9.17
2018-05-04T21:00:04.018Z,5.47
2018-05-04T21:02:32.344Z,10.20
2018-05-04T21:04:59.882Z,6.23
2018-05-04T21:07:27.437Z,5.90
2018-05-04T21:09:54.988Z,7.90
2018-05-04T21:12:22.528Z,5.43
2018-05-04T21:14:50.822Z,10.87
2018-05-04T21:17:18.364Z,12.93
2018-05-04T21:19:46.660Z,14.43
2018-05-04T21:22:14.204Z,18.13
2018-05-04T21:24:42.493Z,13.83
2018-05-04T21:27:10.106Z,18.90
2018-05-04T21:29:38.357Z,15.27
2018-05-04T21:32:05.889Z,13.30
2018-05-04T21:34:33.456Z,15.33
2018-05-04T21:37:01.027Z,16.37
2018-05-04T21:39:28.594Z,15.30
2018-05-04T21:41:56.148Z,13.27
2018-05-04T21:44:23.681Z,9.57
2018-05-04T21:46:51.223Z,13.30
2018-05-04T21:49:18.791Z,13.37
2018-05-04T21:51:46.345Z,11.37
2018-05-04T21:54:13.931Z,9.03
2018-05-04T21:56:41.480Z,9.70
2018-05-04T21:59:09.056Z,8.50
2018-05-04T22:01:36.611Z,8.07
2018-05-04T22:04:04.162Z,9.50
2018-05-04T22:06:31.699Z,12.27
2018-05-04T22:08:59.233Z,13.10
2018-05-04T22:11:27.520Z,12.67
2018-05-04T22:13:55.060Z,16.53
2018-05-04T22:16:22.584Z,12.97
2018-05-04T22:18:50.132Z,17.60
2018-05-04T22:21:17.662Z,18.93
2018-05-04T22:23:45.221Z,14.30
2018-05-04T22:26:12.744Z,15.27
2018-05-04T22:28:40.316Z,12.73
2018-05-04T22:31:07.852Z,18.63
2018-05-04T22:33:35.392Z,28.33
2018-05-04T22:36:02.916Z,30.93
2018-05-04T22:38:30.436Z,22.00
2018-05-04T22:40:58.747Z,24.57
2018-05-04T22:43:26.265Z,43.67
2018-05-04T22:45:54.592Z,38.57
2018-05-04T22:48:22.122Z,34.13
2018-05-04T22:50:49.676Z,31.50
2018-05-04T22:53:17.210Z,44.30
2018-05-04T22:55:44.748Z,48.13
2018-05-04T22:58:12.284Z,44.83
2018-05-04T23:00:39.836Z,40.00
2018-05-04T23:03:07.363Z,34.73
2018-05-04T23:05:34.910Z,38.87
2018-05-04T23:08:02.432Z,32.47
2018-05-04T23:10:29.975Z,38.60
2018-05-04T23:12:57.502Z,33.60
2018-05-04T23:15:25.045Z,30.70
2018-05-04T23:17:52.581Z,30.03
2018-05-04T23:20:20.126Z,24.53
2018-05-04T23:22:47.651Z,23.03
2018-05-04T23:25:15.260Z,18.87
2018-05-04T23:27:42.802Z,22.00
2018-05-04T23:30:10.353Z,18.03
2018-05-04T23:32:37.882Z,18.07
2018-05-04T23:35:05.434Z,16.87
2018-05-04T23:37:32.948Z,16.70
2018-05-04T23:40:00.496Z,17.83
2018-05-04T23:42:28.034Z,13.37
2018-05-04T23:44:55.600Z,13.77
2018-05-04T23:47:23.120Z,13.87
2018-05-04T23:49:50.672Z,9.57
2018-05-04T23:52:18.196Z,9.03
2018-05-04T23:54:45.729Z,16.23
2018-05-04T23:57:13.276Z,16.43
2018-05-04T23:59:40.793Z,10.00
